Time;durP1;ratioP1;P1;durP2;ratioP2;P2;SDS_P1;SDS_P2;PMS_P1;PMS_P2;Temp;Humidity;BMP_temperature;BMP_pressure;BME280_temperature;BME280_humidity;BME280_pressure;Samples;Min_cycle;Max_cycle;Signal;HPM_P1;HPM_P2
2022/07/10 00:00:31;;;;;;;26.30;24.80;;;18.60;84.40;;;;;;5036790;28;20468;-69
2022/07/10 00:03:00;;;;;;;26.83;25.33;;;18.60;84.70;;;;;;5040421;28;20476;-69
2022/07/10 00:05:27;;;;;;;26.80;25.40;;;18.60;84.70;;;;;;5041177;28;20466;-69
2022/07/10 00:07:54;;;;;;;26.60;25.10;;;18.60;84.50;;;;;;5033476;28;20476;-69
2022/07/10 00:10:22;;;;;;;26.77;25.30;;;18.50;84.70;;;;;;5034061;28;20470;-69
2022/07/10 00:12:51;;;;;;;27.00;25.50;;;18.50;84.80;;;;;;5034976;28;20514;-69
2022/07/10 00:15:19;;;;;;;27.17;25.57;;;18.50;85.00;;;;;;5039360;28;20563;-70
2022/07/10 00:17:47;;;;;;;26.87;25.20;;;18.50;85.30;;;;;;5029014;28;20549;-69
2022/07/10 00:20:15;;;;;;;25.97;24.53;;;18.50;85.30;;;;;;5030914;28;20542;-72
2022/07/10 00:22:42;;;;;;;26.70;25.20;;;18.40;85.70;;;;;;5044793;28;20481;-71
2022/07/10 00:25:15;;;;;;;26.03;24.63;;;18.40;86.00;;;;;;5036441;28;20974;-71
2022/07/10 00:27:43;;;;;;;26.80;25.30;;;18.50;85.90;;;;;;5033273;28;20987;-71
2022/07/10 00:30:10;;;;;;;26.00;24.57;;;18.50;86.00;;;;;;5026345;28;22685;-73
2022/07/10 00:32:38;;;;;;;26.47;24.77;;;18.40;86.60;;;;;;5030575;28;20985;-72
2022/07/10 00:35:05;;;;;;;26.87;25.37;;;18.40;87.00;;;;;;5033146;28;20918;-71
2022/07/10 00:37:34;;;;;;;25.80;24.40;;;18.40;86.80;;;;;;5032229;28;20487;-71
2022/07/10 00:40:01;;;;;;;25.23;23.87;;;18.40;87.20;;;;;;5034362;28;20496;-71
2022/07/10 00:42:28;;;;;;;25.37;23.87;;;18.40;86.90;;;;;;5028455;28;20485;-71
2022/07/10 00:44:55;;;;;;;26.17;24.67;;;18.50;85.80;;;;;;5035644;28;20544;-71
2022/07/10 00:47:22;;;;;;;25.20;23.90;;;18.40;85.80;;;;;;5028698;28;20555;-71
2022/07/10 00:49:49;;;;;;;25.70;24.30;;;18.40;85.80;;;;;;5034887;28;21043;-71
2022/07/10 00:52:19;;;;;;;26.07;24.57;;;18.40;86.00;;;;;;5039281;28;20456;-70
2022/07/10 00:54:51;;;;;;;25.33;24.03;;;18.40;85.70;;;;;;5032131;28;20483;-71
2022/07/10 00:57:18;;;;;;;26.30;24.80;;;18.40;85.90;;;;;;5031830;28;20468;-71
2022/07/10 00:59:46;;;;;;;26.40;24.97;;;18.30;86.20;;;;;;5044225;28;20954;-71
2022/07/10 01:02:13;;;;;;;26.57;25.07;;;18.40;85.90;;;;;;5029090;28;20456;-71
2022/07/10 01:04:40;;;;;;;26.07;24.67;;;18.30;86.00;;;;;;5032717;28;20452;-71
2022/07/10 01:07:07;;;;;;;25.20;23.80;;;18.30;85.70;;;;;;5043704;28;20478;-71
2022/07/10 01:09:35;;;;;;;25.83;24.33;;;18.30;86.00;;;;;;5039483;28;20504;-71
2022/07/10 01:12:04;;;;;;;25.30;23.80;;;18.20;86.10;;;;;;5045493;28;20882;-71
2022/07/10 01:14:31;;;;;;;25.87;24.47;;;18.20;86.10;;;;;;5043540;28;20572;-71
2022/07/10 01:16:59;;;;;;;26.50;24.60;;;18.10;86.50;;;;;;5032739;28;20468;-71
2022/07/10 01:19:26;;;;;;;26.33;24.93;;;18.10;86.70;;;;;;5041509;28;20562;-71
2022/07/10 01:21:54;;;;;;;26.80;25.17;;;18.10;86.80;;;;;;5040660;28;20559;-71
2022/07/10 01:24:21;;;;;;;27.00;25.50;;;18.00;86.90;;;;;;5033967;28;20602;-71
2022/07/10 01:26:48;;;;;;;26.57;25.17;;;17.90;86.80;;;;;;5040829;28;20891;-70
2022/07/10 01:29:15;;;;;;;26.07;24.50;;;17.90;86.50;;;;;;5032462;28;20578;-69
2022/07/10 01:31:42;;;;;;;26.13;24.50;;;17.90;86.60;;;;;;5035290;28;20486;-69
2022/07/10 01:34:10;;;;;;;27.63;26.10;;;17.90;86.70;;;;;;5034001;28;20526;-71
2022/07/10 01:36:38;;;;;;;27.03;25.47;;;17.80;86.80;;;;;;5047110;28;20491;-71
2022/07/10 01:39:07;;;;;;;26.40;25.00;;;17.80;86.60;;;;;;5029939;28;20575;-72
2022/07/10 01:41:35;;;;;;;26.70;25.30;;;17.80;86.70;;;;;;5037083;28;20462;-71
2022/07/10 01:44:03;;;;;;;25.87;24.40;;;17.70;86.60;;;;;;5042188;28;20472;-71
2022/07/10 01:46:30;;;;;;;26.23;24.50;;;17.80;86.60;;;;;;5033299;28;20541;-71
2022/07/10 01:48:57;;;;;;;26.10;24.60;;;17.70;86.60;;;;;;5029199;28;20520;-73
2022/07/10 01:51:24;;;;;;;26.13;24.63;;;17.70;86.80;;;;;;5033821;28;20567;-71
2022/07/10 01:53:51;;;;;;;25.63;23.93;;;17.70;87.00;;;;;;5039822;28;20491;-71
2022/07/10 01:56:19;;;;;;;25.43;24.13;;;17.60;87.00;;;;;;5047040;28;20925;-71
2022/07/10 01:58:46;;;;;;;25.80;24.40;;;17.60;87.00;;;;;;5034687;28;20472;-71
2022/07/10 02:01:13;;;;;;;25.27;23.97;;;17.50;87.10;;;;;;5036979;28;20582;-71
2022/07/10 02:06:25;;;;;;;25.77;24.40;;;17.50;87.20;;;;;;5043805;28;21007;-71
2022/07/10 02:08:52;;;;;;;26.33;24.90;;;17.50;87.10;;;;;;5044754;28;20471;-71
2022/07/10 02:11:20;;;;;;;25.97;24.50;;;17.50;87.00;;;;;;5042146;28;20487;-71
2022/07/10 02:13:47;;;;;;;27.00;25.00;;;17.50;86.90;;;;;;5040722;28;20539;-71
2022/07/10 02:16:14;;;;;;;26.77;25.07;;;17.50;86.60;;;;;;5046445;28;20889;-72
2022/07/10 02:18:42;;;;;;;29.90;27.90;;;17.50;86.40;;;;;;5032018;28;20502;-71
2022/07/10 02:21:09;;;;;;;28.40;26.80;;;17.50;85.90;;;;;;5030200;28;20910;-71
2022/07/10 02:23:39;;;;;;;31.93;29.77;;;17.50;85.60;;;;;;5046575;28;20493;-72
2022/07/10 02:26:06;;;;;;;31.40;29.40;;;17.40;86.40;;;;;;5038345;28;20478;-71
2022/07/10 02:28:34;;;;;;;31.27;29.30;;;17.40;86.50;;;;;;5043855;28;20495;-71
2022/07/10 02:31:01;;;;;;;31.57;29.57;;;17.50;86.40;;;;;;5042214;28;20544;-72
2022/07/10 02:33:28;;;;;;;33.80;31.70;;;17.50;86.00;;;;;;5035273;28;20498;-71
2022/07/10 02:35:55;;;;;;;32.17;30.17;;;17.50;86.20;;;;;;5038181;28;20889;-72
2022/07/10 02:38:22;;;;;;;32.30;30.23;;;17.50;86.50;;;;;;5041736;28;20478;-71
2022/07/10 02:40:49;;;;;;;33.83;31.67;;;17.60;86.50;;;;;;5030124;28;20500;-71
2022/07/10 02:43:15;;;;;;;33.57;31.50;;;17.60;86.30;;;;;;5038917;28;20562;-72
2022/07/10 02:45:44;;;;;;;34.13;31.83;;;17.60;86.20;;;;;;5038492;28;20463;-69
2022/07/10 02:48:11;;;;;;;34.97;32.57;;;17.60;86.20;;;;;;5034120;28;20472;-71
2022/07/10 02:50:37;;;;;;;33.30;31.20;;;17.60;86.40;;;;;;5042196;28;20486;-72
2022/07/10 02:53:04;;;;;;;34.83;32.40;;;17.70;86.50;;;;;;5038199;28;20467;-71
2022/07/10 02:55:32;;;;;;;35.30;33.10;;;17.60;86.70;;;;;;5029733;28;20465;-71
2022/07/10 02:58:00;;;;;;;35.87;33.37;;;17.60;86.80;;;;;;5044741;28;20483;-71
2022/07/10 03:00:27;;;;;;;34.80;32.43;;;17.50;87.10;;;;;;5029891;28;20838;-71
2022/07/10 03:02:56;;;;;;;34.17;32.13;;;17.50;87.20;;;;;;5044064;28;20562;-71
2022/07/10 03:05:23;;;;;;;35.23;32.93;;;17.50;87.20;;;;;;5036686;28;20638;-71
2022/07/10 03:07:51;;;;;;;37.13;34.33;;;17.60;87.10;;;;;;5047045;28;20507;-71
2022/07/10 03:10:18;;;;;;;35.20;32.90;;;17.60;86.90;;;;;;5037258;28;20560;-71
2022/07/10 03:12:45;;;;;;;36.33;34.00;;;17.60;87.00;;;;;;5039411;28;20511;-71
2022/07/10 03:15:12;;;;;;;36.17;33.93;;;17.60;86.90;;;;;;5036601;28;20514;-71
2022/07/10 03:17:39;;;;;;;36.83;34.33;;;17.50;86.80;;;;;;5041683;28;20829;-71
2022/07/10 03:20:09;;;;;;;36.13;33.73;;;17.30;87.60;;;;;;5033705;28;20906;-71
2022/07/10 03:22:36;;;;;;;35.53;33.23;;;17.20;88.40;;;;;;5040229;28;20539;-71
2022/07/10 03:25:04;;;;;;;36.40;34.00;;;17.20;88.40;;;;;;5028605;28;20571;-71
2022/07/10 03:27:31;;;;;;;35.40;33.07;;;17.30;88.10;;;;;;5034311;28;21148;-71
2022/07/10 03:29:58;;;;;;;35.50;33.10;;;17.30;88.20;;;;;;5031241;28;20495;-71
2022/07/10 03:32:25;;;;;;;37.40;35.00;;;17.30;88.00;;;;;;5047026;28;20468;-71
2022/07/10 03:34:52;;;;;;;35.07;32.67;;;17.40;87.80;;;;;;5028382;28;20502;-71
2022/07/10 03:37:20;;;;;;;35.73;33.43;;;17.40;87.40;;;;;;5043369;28;20500;-71
2022/07/10 03:39:47;;;;;;;35.03;32.63;;;17.50;87.10;;;;;;5041179;28;20542;-71
2022/07/10 03:42:14;;;;;;;34.20;32.00;;;17.50;87.00;;;;;;5040014;28;21233;-69
2022/07/10 03:44:41;;;;;;;33.03;30.73;;;17.40;86.80;;;;;;5044008;28;20484;-69
2022/07/10 03:47:08;;;;;;;33.20;30.87;;;17.30;86.90;;;;;;5032869;28;20499;-69
2022/07/10 03:49:35;;;;;;;32.70;30.67;;;17.30;86.90;;;;;;5034908;28;20476;-69
2022/07/10 03:52:03;;;;;;;33.93;31.80;;;17.30;87.10;;;;;;5031581;28;20456;-69
2022/07/10 03:54:32;;;;;;;35.37;32.87;;;17.40;86.80;;;;;;5030756;28;20547;-69
2022/07/10 03:59:44;;;;;;;33.53;31.33;;;17.60;85.80;;;;;;5043101;28;20450;-69
2022/07/10 04:02:11;;;;;;;33.70;31.60;;;17.60;86.10;;;;;;5034827;28;20543;-69
2022/07/10 04:04:38;;;;;;;34.10;31.90;;;17.70;86.20;;;;;;5033934;28;20514;-69
2022/07/10 04:07:05;;;;;;;34.23;31.83;;;17.70;85.90;;;;;;5038905;28;20459;-69
2022/07/10 04:09:34;;;;;;;33.03;30.97;;;17.70;86.10;;;;;;5027269;28;20487;-69
2022/07/10 04:12:01;;;;;;;34.03;31.40;;;17.70;86.00;;;;;;5037003;28;20523;-71
2022/07/10 04:14:28;;;;;;;35.23;33.03;;;17.70;86.00;;;;;;5032896;28;20792;-71
2022/07/10 04:16:55;;;;;;;36.43;33.93;;;17.70;86.10;;;;;;5028579;28;21088;-71
2022/07/10 04:19:22;;;;;;;35.03;32.40;;;17.50;86.70;;;;;;5039794;28;20475;-72
2022/07/10 04:21:49;;;;;;;36.00;33.40;;;17.40;87.30;;;;;;5046879;28;20456;-71
2022/07/10 04:24:16;;;;;;;35.67;33.27;;;17.10;88.20;;;;;;5035422;28;20515;-71
2022/07/10 04:26:45;;;;;;;35.87;33.43;;;17.00;88.90;;;;;;5038696;28;20491;-70
2022/07/10 04:29:12;;;;;;;35.57;33.00;;;16.90;89.30;;;;;;5040528;28;20479;-71
2022/07/10 04:31:39;;;;;;;33.83;31.40;;;16.80;89.90;;;;;;5030096;28;20940;-73
2022/07/10 04:34:06;;;;;;;34.03;31.63;;;16.80;90.00;;;;;;5039596;28;20463;-69
2022/07/10 04:36:33;;;;;;;33.93;31.53;;;16.90;89.70;;;;;;5039745;28;20464;-70
2022/07/10 04:39:00;;;;;;;33.40;31.40;;;17.00;89.20;;;;;;5029848;28;20480;-71
2022/07/10 04:41:27;;;;;;;32.03;29.77;;;17.10;89.10;;;;;;5036970;28;20810;-71
2022/07/10 04:43:55;;;;;;;30.23;28.33;;;17.20;88.10;;;;;;5039439;28;20523;-70
2022/07/10 04:46:22;;;;;;;31.53;29.23;;;17.20;87.30;;;;;;5036059;28;20530;-71
2022/07/10 04:48:50;;;;;;;29.50;27.70;;;17.30;87.20;;;;;;5032542;28;20554;-70
2022/07/10 04:51:17;;;;;;;30.90;29.00;;;17.40;86.50;;;;;;5045044;28;20462;-69
2022/07/10 04:53:44;;;;;;;30.43;28.53;;;17.50;85.90;;;;;;5040859;28;20459;-70
2022/07/10 04:56:11;;;;;;;30.37;28.40;;;17.60;85.60;;;;;;5050913;28;20506;-69
2022/07/10 04:58:38;;;;;;;32.10;29.67;;;17.80;84.80;;;;;;5041974;28;20522;-69
2022/07/10 05:01:06;;;;;;;30.67;28.73;;;17.90;84.30;;;;;;5038631;28;20543;-69
2022/07/10 05:03:33;;;;;;;29.60;27.83;;;17.80;83.80;;;;;;5031602;28;20572;-69
2022/07/10 05:06:00;;;;;;;29.87;28.07;;;17.60;85.00;;;;;;5038412;28;20539;-68
2022/07/10 05:08:27;;;;;;;31.03;29.13;;;17.60;85.10;;;;;;5034541;28;20615;-69
2022/07/10 05:10:55;;;;;;;30.20;28.50;;;17.80;84.20;;;;;;5049252;28;20463;-69
2022/07/10 05:13:21;;;;;;;29.03;27.33;;;17.90;82.80;;;;;;5037447;28;20547;-69
2022/07/10 05:15:49;;;;;;;28.80;27.00;;;17.80;83.20;;;;;;5034213;28;21037;-69
2022/07/10 05:18:18;;;;;;;29.07;27.27;;;17.90;83.40;;;;;;5036929;28;20482;-69
2022/07/10 05:20:47;;;;;;;28.67;26.97;;;18.00;82.50;;;;;;5035718;28;20547;-68
2022/07/10 05:23:15;;;;;;;27.97;26.30;;;17.90;82.50;;;;;;5034504;28;20455;-69
2022/07/10 05:25:42;;;;;;;29.77;27.77;;;18.00;82.20;;;;;;5049969;28;21291;-69
2022/07/10 05:28:09;;;;;;;28.40;26.70;;;18.10;81.60;;;;;;5032991;28;20491;-69
2022/07/10 05:30:36;;;;;;;28.40;26.80;;;17.90;82.00;;;;;;5044406;28;20546;-69
2022/07/10 05:33:03;;;;;;;27.20;25.70;;;17.80;81.70;;;;;;5041931;28;20536;-69
2022/07/10 05:35:31;;;;;;;28.30;26.43;;;17.80;82.30;;;;;;5044694;28;20473;-69
2022/07/10 05:37:58;;;;;;;27.00;25.50;;;17.70;82.30;;;;;;5045048;28;20530;-69
2022/07/10 05:40:25;;;;;;;28.53;26.60;;;17.70;81.70;;;;;;5046209;28;20526;-69
2022/07/10 05:42:52;;;;;;;28.67;26.60;;;17.60;82.10;;;;;;5044262;28;20555;-69
2022/07/10 05:45:19;;;;;;;28.07;26.13;;;17.60;82.10;;;;;;5043726;28;20925;-69
2022/07/10 05:47:46;;;;;;;27.10;25.17;;;17.70;82.10;;;;;;5039772;28;20484;-68
2022/07/10 05:50:13;;;;;;;26.20;24.70;;;17.90;80.90;;;;;;5039299;28;20451;-69
2022/07/10 05:52:42;;;;;;;25.37;23.97;;;18.10;79.60;;;;;;5042349;28;20492;-69
2022/07/10 05:55:09;;;;;;;26.60;25.10;;;18.10;78.30;;;;;;5046251;28;20475;-68
2022/07/10 05:57:37;;;;;;;27.07;25.53;;;18.00;78.40;;;;;;5038410;28;20930;-68
2022/07/10 06:00:05;;;;;;;25.83;24.53;;;18.10;77.90;;;;;;5044440;28;20482;-69
2022/07/10 06:02:32;;;;;;;27.40;25.47;;;18.00;77.40;;;;;;5044454;28;20542;-69
2022/07/10 06:04:59;;;;;;;26.37;24.73;;;17.80;78.50;;;;;;5044698;28;20567;-70
2022/07/10 06:07:26;;;;;;;26.93;25.43;;;17.80;76.80;;;;;;5046783;28;20957;-71
2022/07/10 06:09:55;;;;;;;26.53;24.93;;;17.80;76.10;;;;;;5047287;28;21319;-70
2022/07/10 06:12:22;;;;;;;26.10;24.60;;;17.90;75.30;;;;;;5050028;28;20567;-70
2022/07/10 06:14:49;;;;;;;25.13;23.73;;;17.90;75.30;;;;;;5036342;28;20540;-70
2022/07/10 06:17:16;;;;;;;27.00;25.13;;;18.00;75.40;;;;;;5039421;28;20456;-71
2022/07/10 06:19:43;;;;;;;25.50;24.00;;;18.10;75.10;;;;;;5036422;28;20488;-70
2022/07/10 06:24:56;;;;;;;26.17;24.53;;;18.20;75.00;;;;;;5041729;28;20471;-70
2022/07/10 06:27:23;;;;;;;26.17;24.67;;;18.30;74.90;;;;;;5042192;28;20578;-73
2022/07/10 06:29:50;;;;;;;28.17;26.47;;;18.30;74.30;;;;;;5031874;28;20543;-70
2022/07/10 06:32:17;;;;;;;29.10;27.13;;;18.30;74.90;;;;;;5043708;28;20575;-70
2022/07/10 06:34:44;;;;;;;27.10;25.43;;;18.40;74.80;;;;;;5036119;28;20507;-70
2022/07/10 06:37:11;;;;;;;26.03;24.53;;;18.60;73.90;;;;;;5030362;28;20559;-68
2022/07/10 06:39:38;;;;;;;27.40;25.60;;;18.50;74.00;;;;;;5032003;28;20476;-69
2022/07/10 06:42:07;;;;;;;28.40;26.70;;;18.40;74.40;;;;;;5036081;28;20476;-69
2022/07/10 06:44:34;;;;;;;27.30;25.70;;;18.40;73.00;;;;;;5029892;28;20631;-69
2022/07/10 06:49:48;;;;;;;26.20;24.70;;;18.40;73.40;;;;;;5034140;28;20467;-70
2022/07/10 06:52:15;;;;;;;26.23;24.73;;;18.20;72.90;;;;;;5036201;28;21123;-69
2022/07/10 06:54:42;;;;;;;26.60;25.10;;;18.10;73.20;;;;;;5031777;28;20544;-68
2022/07/10 06:57:11;;;;;;;24.25;22.85;;;18.00;74.70;;;;;;5030649;28;21051;-68
2022/07/10 06:59:38;;;;;;;26.53;24.90;;;18.00;73.00;;;;;;5039761;28;20248;-69
2022/07/10 07:02:06;;;;;;;26.53;25.07;;;18.00;73.90;;;;;;5048203;28;20491;-70
2022/07/10 07:04:33;;;;;;;26.90;25.13;;;18.20;73.60;;;;;;5036593;28;21060;-71
2022/07/10 07:07:00;;;;;;;25.80;24.40;;;18.30;73.40;;;;;;5045095;28;20490;-70
2022/07/10 07:09:27;;;;;;;27.47;25.77;;;18.20;72.20;;;;;;5038441;28;20589;-70
2022/07/10 07:11:54;;;;;;;29.40;27.70;;;18.20;71.90;;;;;;5035370;28;20497;-71
2022/07/10 07:14:23;;;;;;;27.57;25.97;;;18.20;71.90;;;;;;5048334;28;20534;-69
2022/07/10 07:16:59;;;;;;;26.50;24.97;;;18.30;71.30;;;;;;5045164;28;20468;-69
2022/07/10 07:19:31;;;;;;;26.03;24.53;;;18.10;71.20;;;;;;5033962;28;20488;-71
2022/07/10 07:24:43;;;;;;;26.70;25.20;;;17.90;71.80;;;;;;5030756;28;20499;-72
2022/07/10 07:27:11;;;;;;;26.20;24.70;;;17.70;73.10;;;;;;5032005;28;20463;-73
2022/07/10 07:29:39;;;;;;;27.00;25.40;;;17.60;73.30;;;;;;5029997;28;20504;-72
2022/07/10 07:32:07;;;;;;;27.47;25.97;;;17.90;72.80;;;;;;5039222;28;20456;-76
2022/07/10 07:34:34;;;;;;;25.80;24.20;;;18.00;72.00;;;;;;5027722;28;20543;-73
2022/07/10 07:37:01;;;;;;;27.33;25.43;;;18.00;72.00;;;;;;5038911;28;20472;-73
2022/07/10 07:39:28;;;;;;;27.50;25.87;;;18.00;70.30;;;;;;5035302;28;20570;-73
2022/07/10 07:41:55;;;;;;;25.97;24.23;;;18.20;69.90;;;;;;5048138;28;21304;-72
2022/07/10 07:44:22;;;;;;;25.90;24.43;;;18.30;70.00;;;;;;5040044;28;20454;-71
2022/07/10 07:46:51;;;;;;;28.23;26.50;;;18.60;69.80;;;;;;5041472;28;20538;-72
2022/07/10 07:49:18;;;;;;;26.40;24.70;;;18.80;69.20;;;;;;5030036;28;20495;-71
2022/07/10 07:51:45;;;;;;;26.80;25.13;;;18.90;68.90;;;;;;5040889;28;21013;-73
2022/07/10 07:54:12;;;;;;;28.43;26.90;;;19.00;68.10;;;;;;5030985;28;20889;-71
2022/07/10 07:56:39;;;;;;;27.00;25.33;;;19.00;66.60;;;;;;5038983;28;20535;-74
2022/07/10 07:59:07;;;;;;;27.63;25.73;;;18.90;67.80;;;;;;5037277;28;20494;-72
2022/07/10 08:01:34;;;;;;;25.70;24.20;;;18.60;68.30;;;;;;5029422;28;20535;-71
2022/07/10 08:04:02;;;;;;;26.10;24.30;;;18.50;68.30;;;;;;5038314;28;20490;-69
2022/07/10 08:06:29;;;;;;;27.30;25.43;;;18.60;68.60;;;;;;5045418;28;21073;-70
2022/07/10 08:08:56;;;;;;;25.33;23.90;;;18.90;67.80;;;;;;5039089;28;20565;-70
2022/07/10 08:11:23;;;;;;;27.73;26.10;;;19.20;65.90;;;;;;5029770;28;20473;-70
2022/07/10 08:13:50;;;;;;;25.73;23.87;;;19.10;65.20;;;;;;5037415;28;20473;-71
2022/07/10 08:16:17;;;;;;;25.47;23.93;;;19.20;65.10;;;;;;5040196;28;20834;-69
2022/07/10 08:18:44;;;;;;;25.40;24.00;;;19.40;65.10;;;;;;5042691;28;20530;-68
2022/07/10 08:21:12;;;;;;;25.00;23.60;;;19.40;64.00;;;;;;5034784;28;20481;-69
2022/07/10 08:23:39;;;;;;;26.03;24.43;;;19.30;64.40;;;;;;5034883;28;21927;-68
2022/07/10 08:26:06;;;;;;;27.30;25.47;;;19.00;65.00;;;;;;5037674;28;20559;-67
2022/07/10 08:28:33;;;;;;;25.83;24.33;;;19.20;65.00;;;;;;5033481;28;20540;-70
2022/07/10 08:31:01;;;;;;;29.40;27.80;;;19.40;64.70;;;;;;5035139;28;20522;-70
2022/07/10 08:33:28;;;;;;;26.27;24.67;;;19.80;63.80;;;;;;5043546;28;20464;-70
2022/07/10 08:35:58;;;;;;;24.80;23.10;;;19.90;62.50;;;;;;5043212;28;20481;-69
2022/07/10 08:38:27;;;;;;;26.30;24.50;;;19.80;62.70;;;;;;5032330;28;20502;-72
2022/07/10 08:40:57;;;;;;;26.17;24.10;;;20.00;61.90;;;;;;5037544;28;20493;-68
2022/07/10 08:43:25;;;;;;;25.60;23.97;;;20.00;62.00;;;;;;5030703;28;21024;-70
2022/07/10 08:45:53;;;;;;;25.27;23.77;;;19.70;62.90;;;;;;5049372;28;20481;-68
2022/07/10 08:48:24;;;;;;;27.37;25.77;;;19.60;63.50;;;;;;5034089;28;20485;-68
2022/07/10 08:50:54;;;;;;;24.70;23.40;;;19.60;63.70;;;;;;5028712;28;20516;-69
2022/07/10 08:53:30;;;;;;;26.20;24.80;;;19.30;64.10;;;;;;5041137;28;20470;-69
2022/07/10 08:55:57;;;;;;;26.43;24.90;;;19.20;64.20;;;;;;5047322;28;20463;-71
2022/07/10 08:58:25;;;;;;;25.07;23.63;;;19.30;64.20;;;;;;5042093;28;20508;-69
2022/07/10 09:00:52;;;;;;;27.90;26.30;;;19.60;63.40;;;;;;5029424;28;20520;-68
2022/07/10 09:03:20;;;;;;;27.70;25.80;;;19.90;62.60;;;;;;5037024;28;20471;-69
2022/07/10 09:05:47;;;;;;;26.40;24.70;;;20.00;61.50;;;;;;5041257;28;20477;-71
2022/07/10 09:08:23;;;;;;;24.67;23.27;;;20.20;61.20;;;;;;5038706;28;20955;-71
2022/07/10 09:10:51;;;;;;;28.00;26.17;;;20.20;60.10;;;;;;5029913;28;20460;-72
2022/07/10 09:13:19;;;;;;;26.70;24.97;;;20.30;60.40;;;;;;5042036;28;20536;-70
2022/07/10 09:15:50;;;;;;;26.53;24.60;;;20.10;61.00;;;;;;5048480;28;20559;-70
2022/07/10 09:18:20;;;;;;;26.87;25.00;;;20.30;60.60;;;;;;5036714;28;20565;-70
2022/07/10 09:20:47;;;;;;;26.67;25.07;;;20.10;60.60;;;;;;5036083;28;20466;-68
2022/07/10 09:23:17;;;;;;;26.37;24.73;;;20.00;60.60;;;;;;5031109;28;20559;-68
2022/07/10 09:25:47;;;;;;;28.23;26.43;;;20.00;60.60;;;;;;5030053;28;20478;-68
2022/07/10 09:28:19;;;;;;;25.73;24.30;;;20.20;59.90;;;;;;5035262;28;20483;-71
2022/07/10 09:30:48;;;;;;;26.40;24.80;;;20.20;58.40;;;;;;5032618;28;20459;-69
2022/07/10 09:33:24;;;;;;;28.93;27.43;;;19.70;59.70;;;;;;5047903;28;20554;-69
2022/07/10 09:36:11;;;;;;;26.97;25.37;;;19.40;60.70;;;;;;5039024;28;20465;-68
2022/07/10 09:39:00;;;;;;;28.10;26.50;;;19.70;60.40;;;;;;5032401;28;20496;-67
2022/07/10 09:41:32;;;;;;;27.13;25.43;;;20.20;58.50;;;;;;5044271;28;20458;-69
2022/07/10 09:44:02;;;;;;;26.97;25.13;;;20.40;57.90;;;;;;5049567;28;20460;-69
2022/07/10 09:46:35;;;;;;;28.67;26.90;;;20.20;58.40;;;;;;5046719;28;20560;-68
2022/07/10 09:49:04;;;;;;;26.27;24.87;;;19.90;59.50;;;;;;5032859;28;20567;-67
2022/07/10 09:51:34;;;;;;;25.40;24.00;;;19.90;59.60;;;;;;5047222;28;20461;-68
2022/07/10 09:54:03;;;;;;;25.20;23.70;;;20.10;59.30;;;;;;5036712;28;20473;-68
2022/07/10 09:56:51;;;;;;;26.50;24.90;;;20.00;59.00;;;;;;5035141;28;20465;-67
2022/07/10 09:59:21;;;;;;;28.50;27.00;;;20.00;59.50;;;;;;5040212;28;20844;-68
2022/07/10 10:01:50;;;;;;;25.53;24.03;;;20.30;58.70;;;;;;5030010;28;20949;-68
2022/07/10 10:04:19;;;;;;;27.37;25.70;;;20.60;57.80;;;;;;5045031;28;20550;-68
2022/07/10 10:06:50;;;;;;;25.70;24.30;;;20.60;57.20;;;;;;5032737;28;20486;-69
2022/07/10 10:09:25;;;;;;;28.00;26.30;;;20.10;58.40;;;;;;5047503;28;20486;-67
2022/07/10 10:11:57;;;;;;;26.60;24.90;;;20.10;59.10;;;;;;5040632;28;20469;-68
2022/07/10 10:14:28;;;;;;;26.67;25.17;;;20.20;57.60;;;;;;5030472;28;20485;-67
2022/07/10 10:16:56;;;;;;;27.13;25.53;;;19.90;58.00;;;;;;5034513;28;20539;-68
2022/07/10 10:22:09;;;;;;;25.73;24.07;;;19.40;60.60;;;;;;5035734;28;20864;-67
2022/07/10 10:24:39;;;;;;;29.00;27.40;;;19.70;59.70;;;;;;5039378;28;20489;-67
2022/07/10 10:27:07;;;;;;;25.97;24.47;;;19.80;59.70;;;;;;5034962;28;20479;-68
2022/07/10 10:29:38;;;;;;;29.93;28.03;;;20.00;58.80;;;;;;5029050;28;20484;-67
2022/07/10 10:32:06;;;;;;;25.73;24.20;;;19.90;58.40;;;;;;5035555;28;20909;-67
2022/07/10 10:34:41;;;;;;;27.80;26.20;;;20.00;58.50;;;;;;5029025;28;20750;-67
2022/07/10 10:37:37;;;;;;;26.03;24.53;;;19.60;59.00;;;;;;5034095;28;21024;-67
2022/07/10 10:40:05;;;;;;;28.60;26.87;;;19.60;59.90;;;;;;5040563;28;20466;-67
2022/07/10 10:42:36;;;;;;;25.70;24.30;;;19.70;58.10;;;;;;5039588;28;20465;-67
2022/07/10 10:45:32;;;;;;;27.87;25.93;;;19.80;58.20;;;;;;5037185;28;20545;-67
2022/07/10 10:48:00;;;;;;;29.17;27.57;;;20.10;56.90;;;;;;5047331;28;20488;-67
2022/07/10 10:50:41;;;;;;;26.10;24.53;;;19.80;57.90;;;;;;5037734;28;20470;-67
2022/07/10 10:53:14;;;;;;;26.77;25.07;;;19.90;57.30;;;;;;5030799;28;20547;-68
2022/07/10 10:55:42;;;;;;;26.90;25.43;;;19.70;57.80;;;;;;5039147;28;20458;-67
2022/07/10 10:58:17;;;;;;;26.27;24.60;;;19.80;58.40;;;;;;5037777;28;20478;-67
2022/07/10 11:00:48;;;;;;;29.27;27.63;;;19.70;59.00;;;;;;5028127;28;20467;-67
2022/07/10 11:03:20;;;;;;;26.50;25.00;;;19.60;59.40;;;;;;5029135;28;20454;-67
2022/07/10 11:05:48;;;;;;;29.20;27.60;;;19.90;59.00;;;;;;5030673;28;20489;-67
2022/07/10 11:08:35;;;;;;;28.33;26.73;;;20.30;58.40;;;;;;5028435;28;20570;-67
2022/07/10 11:11:02;;;;;;;25.97;24.30;;;20.50;57.40;;;;;;5036194;28;20466;-67
2022/07/10 11:13:30;;;;;;;27.43;25.50;;;20.30;57.10;;;;;;5045872;28;20456;-68
2022/07/10 11:15:58;;;;;;;26.20;24.70;;;20.10;57.30;;;;;;5040800;28;20459;-67
2022/07/10 11:18:28;;;;;;;26.73;25.13;;;20.10;57.20;;;;;;5037012;28;20857;-67
2022/07/10 11:20:55;;;;;;;28.93;27.23;;;20.30;57.00;;;;;;5034831;28;20529;-68
2022/07/10 11:23:52;;;;;;;27.23;25.73;;;20.60;56.40;;;;;;5033457;28;20945;-67
2022/07/10 11:26:25;;;;;;;26.60;24.93;;;20.70;55.50;;;;;;5030543;28;20520;-67
2022/07/10 11:28:53;;;;;;;25.97;24.50;;;20.40;55.60;;;;;;5035831;28;20586;-67
2022/07/10 11:31:23;;;;;;;28.60;26.90;;;20.50;54.90;;;;;;5041915;28;20681;-67
2022/07/10 11:33:52;;;;;;;27.70;26.03;;;20.70;53.80;;;;;;5038477;28;20545;-67
2022/07/10 11:36:21;;;;;;;26.50;25.07;;;20.50;54.00;;;;;;5035889;28;20545;-71
2022/07/10 11:38:49;;;;;;;25.20;23.80;;;20.10;54.20;;;;;;5031865;28;20561;-70
2022/07/10 11:41:18;;;;;;;25.50;24.03;;;19.80;54.10;;;;;;5039787;28;20471;-69
2022/07/10 11:43:52;;;;;;;26.93;25.43;;;20.00;54.00;;;;;;5032771;28;20467;-68
2022/07/10 11:46:21;;;;;;;26.60;25.10;;;20.00;53.40;;;;;;5029344;28;20486;-68
2022/07/10 11:48:50;;;;;;;28.30;26.60;;;20.40;52.40;;;;;;5034772;28;20994;-68
2022/07/10 11:51:18;;;;;;;26.60;25.10;;;20.70;51.40;;;;;;5028203;28;20944;-67
2022/07/10 11:53:58;;;;;;;26.83;25.23;;;21.20;51.40;;;;;;5029762;28;20559;-67
2022/07/10 11:56:26;;;;;;;25.33;23.93;;;21.20;52.40;;;;;;5033249;28;21054;-68
2022/07/10 11:58:57;;;;;;;25.90;24.10;;;20.70;53.50;;;;;;5033723;28;20481;-67
2022/07/10 12:01:26;;;;;;;26.87;24.80;;;20.60;54.10;;;;;;5028198;28;20569;-68
2022/07/10 12:04:02;;;;;;;26.60;25.10;;;20.50;53.70;;;;;;5033637;28;20538;-68
2022/07/10 12:06:29;;;;;;;26.87;25.40;;;20.60;52.50;;;;;;5039133;28;20573;-68
2022/07/10 12:08:57;;;;;;;25.50;24.10;;;20.70;52.30;;;;;;5032051;28;20501;-71
2022/07/10 12:11:24;;;;;;;25.40;23.90;;;21.00;52.00;;;;;;5030347;28;20550;-68
2022/07/10 12:13:54;;;;;;;25.97;24.57;;;20.90;52.60;;;;;;5034331;28;20881;-70
2022/07/10 12:16:23;;;;;;;26.37;24.70;;;20.50;53.00;;;;;;5031638;28;20455;-68
2022/07/10 12:18:51;;;;;;;26.40;24.90;;;20.40;53.00;;;;;;5031110;28;20490;-68
2022/07/10 12:21:19;;;;;;;26.50;24.87;;;20.40;53.40;;;;;;5036137;28;20608;-68
2022/07/10 12:23:48;;;;;;;27.00;25.40;;;20.60;52.60;;;;;;5027371;28;20551;-68
2022/07/10 12:26:16;;;;;;;27.10;25.40;;;20.80;51.20;;;;;;5033828;28;20480;-68
2022/07/10 12:28:50;;;;;;;25.67;23.90;;;21.00;51.70;;;;;;5035353;28;20506;-70
2022/07/10 12:31:25;;;;;;;29.30;27.80;;;21.20;50.90;;;;;;5028055;28;20551;-69
2022/07/10 12:33:57;;;;;;;25.40;23.90;;;21.20;50.90;;;;;;5034032;28;20455;-70
2022/07/10 12:36:24;;;;;;;26.10;24.50;;;21.20;50.70;;;;;;5032339;28;20451;-68
2022/07/10 12:38:57;;;;;;;26.63;25.03;;;21.00;50.20;;;;;;5036591;28;20481;-68
2022/07/10 12:41:25;;;;;;;25.60;24.30;;;20.90;50.20;;;;;;5034320;28;20465;-73
2022/07/10 12:43:54;;;;;;;26.40;25.00;;;20.90;49.70;;;;;;5035722;28;20456;-73
2022/07/10 12:46:23;;;;;;;26.07;24.47;;;20.90;49.30;;;;;;5039954;28;20487;-72
2022/07/10 12:49:05;;;;;;;29.17;27.60;;;21.00;49.90;;;;;;5033903;28;20578;-73
2022/07/10 12:51:34;;;;;;;25.63;24.23;;;20.90;50.90;;;;;;5038670;28;20455;-69